createdAt,value
2022-11-16T01:13:30.565Z,62.43
2022-11-16T01:17:02.183Z,62.55
2022-11-16T01:20:09.070Z,62.66
2022-11-16T01:23:13.063Z,62.66
2022-11-16T01:26:16.894Z,62.57
2022-11-16T01:29:20.804Z,62.45
2022-11-16T01:32:30.357Z,63.48
2022-11-16T01:35:33.514Z,62.89
2022-11-16T01:38:37.856Z,62.66
2022-11-16T01:41:44.737Z,64.95
2022-11-16T01:44:47.818Z,64.19
2022-11-16T01:47:54.926Z,64.52
2022-11-16T01:51:02.875Z,64.92
2022-11-16T01:54:10.830Z,65.55
2022-11-16T01:57:23.905Z,66.19
2022-11-16T02:00:39.214Z,65.76
2022-11-16T02:04:01.415Z,65.06
2022-11-16T02:08:11.901Z,64.19
2022-11-16T02:11:24.588Z,62.16
2022-11-16T02:14:52.530Z,60.95
2022-11-16T02:18:09.425Z,61.04
2022-11-16T02:21:27.498Z,60.48
2022-11-16T02:24:53.300Z,59.84
2022-11-16T02:28:12.058Z,59.62
2022-11-16T02:31:20.978Z,59.75
2022-11-16T02:34:29.782Z,60.22
2022-11-16T02:37:38.922Z,60.45
2022-11-16T02:40:47.406Z,60.12
2022-11-16T02:44:05.145Z,59.71
2022-11-16T02:47:14.619Z,59.09
2022-11-16T02:50:21.882Z,58.59
2022-11-16T02:53:26.961Z,58.09
2022-11-16T02:56:45.584Z,57.47
2022-11-16T02:59:53.641Z,56.74
2022-11-16T03:03:17.463Z,55.53
2022-11-16T03:06:29.600Z,55.26
2022-11-16T03:09:37.893Z,56.10
2022-11-16T03:12:42.613Z,56.00
2022-11-16T03:15:49.231Z,56.04
2022-11-16T03:18:56.383Z,55.95
2022-11-16T03:22:08.149Z,56.21
2022-11-16T03:25:19.887Z,56.23
2022-11-16T03:28:34.624Z,56.39
2022-11-16T03:31:48.707Z,56.30
2022-11-16T03:35:32.115Z,55.20
2022-11-16T03:38:39.904Z,55.41
2022-11-16T03:41:47.281Z,56.25
2022-11-16T03:44:51.778Z,56.57
2022-11-16T03:47:55.168Z,56.92
2022-11-16T03:50:59.036Z,56.79
2022-11-16T03:54:04.134Z,57.21
2022-11-16T03:57:15.860Z,57.01
2022-11-16T04:00:21.643Z,56.85
2022-11-16T04:03:27.377Z,57.07
2022-11-16T04:06:49.770Z,56.77
2022-11-16T04:10:11.478Z,56.63
2022-11-16T04:13:36.258Z,57.02
2022-11-16T04:16:57.727Z,55.76
2022-11-16T04:20:19.501Z,55.13
2022-11-16T04:23:42.183Z,54.90
2022-11-16T04:27:09.010Z,54.59
2022-11-16T04:30:14.452Z,54.16
2022-11-16T04:33:39.266Z,53.66
2022-11-16T04:37:03.862Z,53.12
2022-11-16T04:40:15.451Z,53.47
2022-11-16T04:43:33.822Z,53.76
2022-11-16T04:47:00.121Z,54.06
2022-11-16T04:50:05.173Z,54.00
2022-11-16T04:53:10.823Z,54.40
2022-11-16T04:56:22.314Z,55.80
2022-11-16T04:59:26.333Z,55.96
2022-11-16T05:02:29.930Z,56.10
2022-11-16T05:05:36.110Z,56.38
2022-11-16T05:08:41.504Z,56.97
2022-11-16T05:11:47.611Z,57.60
2022-11-16T05:14:52.664Z,58.18
2022-11-16T05:18:00.763Z,58.07
2022-11-16T05:21:07.285Z,58.06
2022-11-16T05:24:38.068Z,58.41
2022-11-16T05:27:43.992Z,58.42
2022-11-16T05:30:51.025Z,58.38
2022-11-16T05:33:59.724Z,58.59
2022-11-16T05:37:06.221Z,58.95
2022-11-16T05:40:13.385Z,60.30
2022-11-16T05:43:27.060Z,59.75
2022-11-16T05:46:51.225Z,59.57
2022-11-16T05:49:56.400Z,60.50
2022-11-16T05:53:05.511Z,60.41
2022-11-16T05:56:13.372Z,60.96
2022-11-16T05:59:21.116Z,60.54
2022-11-16T06:02:30.308Z,60.65
2022-11-16T06:05:40.905Z,60.51
2022-11-16T06:08:49.422Z,61.17
2022-11-16T06:12:01.283Z,60.90
2022-11-16T06:15:08.521Z,60.59
2022-11-16T06:18:14.443Z,60.39
2022-11-16T06:21:21.372Z,60.44
2022-11-16T06:24:26.966Z,59.97
2022-11-16T06:27:31.334Z,59.64
2022-11-16T06:30:35.553Z,59.22
2022-11-16T06:33:40.040Z,59.54
2022-11-16T06:36:50.365Z,59.16
2022-11-16T06:39:54.593Z,59.08
2022-11-16T06:42:59.373Z,59.20
2022-11-16T06:46:02.581Z,59.38
2022-11-16T06:49:08.390Z,59.27
2022-11-16T06:52:12.510Z,59.36
2022-11-16T06:55:17.335Z,59.18
2022-11-16T06:58:20.402Z,59.35
2022-11-16T07:01:23.323Z,59.72
2022-11-16T07:04:32.198Z,59.79
2022-11-16T07:07:36.654Z,59.66
2022-11-16T07:10:40.080Z,60.33
2022-11-16T07:13:43.980Z,60.61
2022-11-16T07:16:48.561Z,60.40
2022-11-16T07:19:52.009Z,59.98
2022-11-16T07:22:59.531Z,59.91
2022-11-16T07:26:09.386Z,59.69
2022-11-16T07:29:25.697Z,59.29
2022-11-16T07:33:00.368Z,59.31
2022-11-16T07:36:27.214Z,59.72
2022-11-16T07:39:51.614Z,59.73
2022-11-16T07:42:59.531Z,60.04
2022-11-16T07:46:47.170Z,60.30
2022-11-16T07:49:52.893Z,60.28
2022-11-16T07:52:59.799Z,59.96
2022-11-16T07:56:04.075Z,59.95
2022-11-16T07:59:09.832Z,60.02
2022-11-16T08:02:17.655Z,60.12
2022-11-16T08:05:21.315Z,60.04
2022-11-16T08:08:26.363Z,60.09
2022-11-16T08:11:29.641Z,60.23
2022-11-16T08:14:33.504Z,60.43
2022-11-16T08:17:38.260Z,60.83
2022-11-16T08:20:43.832Z,61.44
2022-11-16T08:23:47.819Z,61.28
2022-11-16T08:26:51.293Z,61.68
2022-11-16T08:29:55.549Z,62.27
2022-11-16T08:32:59.328Z,62.26
2022-11-16T08:36:14.463Z,62.05
2022-11-16T08:39:21.938Z,61.92
2022-11-16T08:42:26.010Z,61.97
2022-11-16T08:45:37.168Z,61.93
2022-11-16T08:48:41.068Z,61.68
2022-11-16T08:51:46.090Z,61.46
2022-11-16T08:54:49.731Z,61.30
2022-11-16T08:57:53.874Z,61.16
2022-11-16T09:00:57.081Z,60.89
2022-11-16T09:04:01.275Z,61.13
2022-11-16T09:07:05.217Z,61.56
2022-11-16T09:10:09.183Z,62.01
2022-11-16T09:13:12.263Z,61.86
2022-11-16T09:16:21.244Z,61.86
2022-11-16T09:19:24.960Z,61.47
2022-11-16T09:22:28.872Z,61.33
2022-11-16T09:25:32.312Z,61.41
2022-11-16T09:28:42.411Z,61.41
2022-11-16T09:35:11.584Z,61.16
2022-11-16T09:38:30.388Z,61.02
2022-11-16T09:42:20.987Z,60.85
2022-11-16T09:45:38.715Z,60.68
2022-11-16T09:48:51.360Z,60.53
2022-11-16T09:52:02.719Z,60.60
2022-11-16T09:55:48.232Z,60.66
2022-11-16T09:59:23.363Z,60.38
2022-11-16T10:02:51.871Z,59.88
2022-11-16T10:06:21.175Z,59.61
2022-11-16T10:09:35.239Z,59.73
2022-11-16T10:13:26.123Z,59.73
2022-11-16T10:16:39.353Z,59.74
2022-11-16T10:20:04.062Z,59.94
2022-11-16T10:23:19.238Z,59.84
2022-11-16T10:26:39.642Z,59.94
2022-11-16T10:29:58.696Z,59.74
2022-11-16T10:33:20.337Z,59.61
2022-11-16T10:36:28.055Z,59.48
2022-11-16T10:39:34.939Z,59.35
2022-11-16T10:42:41.495Z,59.23
2022-11-16T10:46:17.803Z,59.33
2022-11-16T10:49:48.366Z,59.20
2022-11-16T10:52:54.398Z,59.19
2022-11-16T10:56:22.835Z,59.37
2022-11-16T10:59:45.177Z,59.18
2022-11-16T11:02:51.190Z,58.72
2022-11-16T11:05:56.380Z,58.74
2022-11-16T11:09:22.923Z,58.98
2022-11-16T11:12:41.271Z,58.89
2022-11-16T11:15:49.892Z,59.28
2022-11-16T11:18:54.816Z,59.22
2022-11-16T11:22:04.382Z,59.83
2022-11-16T11:25:27.308Z,60.19
2022-11-16T11:28:35.303Z,60.61
2022-11-16T11:31:51.487Z,60.80
2022-11-16T11:35:02.841Z,61.22
2022-11-16T11:38:16.053Z,63.37
2022-11-16T11:41:22.536Z,65.91
2022-11-16T11:45:00.849Z,67.11
2022-11-16T11:48:43.064Z,66.83
2022-11-16T11:51:51.534Z,67.07
2022-11-16T11:55:00.014Z,67.10
2022-11-16T11:58:16.299Z,67.26
2022-11-16T12:02:07.016Z,67.54
2022-11-16T12:05:49.427Z,66.73
2022-11-16T12:09:10.223Z,66.02
2022-11-16T12:12:25.886Z,65.15
2022-11-16T12:15:53.685Z,64.75
2022-11-16T12:19:12.777Z,64.63
2022-11-16T12:22:48.485Z,64.50
2022-11-16T12:26:11.081Z,63.89
2022-11-16T12:29:30.100Z,63.57
2022-11-16T12:32:42.530Z,63.21
2022-11-16T12:35:57.561Z,62.84
2022-11-16T12:39:27.309Z,63.27
2022-11-16T12:42:42.733Z,63.99
2022-11-16T12:45:58.660Z,65.78
2022-11-16T12:49:20.262Z,67.14
2022-11-16T12:52:47.734Z,68.74
2022-11-16T12:56:08.341Z,70.45
2022-11-16T12:59:26.281Z,71.16
2022-11-16T13:02:54.841Z,71.71
2022-11-16T13:06:01.279Z,71.71
2022-11-16T13:09:21.468Z,71.45
2022-11-16T13:12:27.323Z,71.34
2022-11-16T13:15:38.600Z,71.53
2022-11-16T13:18:43.797Z,71.07
2022-11-16T13:22:08.588Z,71.48
2022-11-16T13:25:30.730Z,71.66
2022-11-16T13:29:00.856Z,71.12
2022-11-16T13:32:15.863Z,70.80
2022-11-16T13:35:19.644Z,70.95
2022-11-16T13:38:53.341Z,72.20
2022-11-16T13:42:14.093Z,73.05
2022-11-16T13:45:23.395Z,72.84
2022-11-16T13:48:36.689Z,73.39
2022-11-16T13:51:40.412Z,74.28
2022-11-16T13:54:50.006Z,74.92
2022-11-16T13:57:57.115Z,75.28
2022-11-16T14:01:09.000Z,75.84
2022-11-16T14:04:42.957Z,76.03
2022-11-16T14:07:51.165Z,76.18
2022-11-16T14:10:54.547Z,75.75
2022-11-16T14:14:01.543Z,75.78
2022-11-16T14:17:04.910Z,76.11
2022-11-16T14:20:14.454Z,75.30
2022-11-16T14:23:36.889Z,75.28
2022-11-16T14:26:47.258Z,74.37
2022-11-16T14:30:12.306Z,74.39
2022-11-16T14:33:28.126Z,74.33
2022-11-16T14:36:45.859Z,74.14
2022-11-16T14:39:52.180Z,73.80
2022-11-16T14:43:16.085Z,73.80
2022-11-16T14:46:28.591Z,73.13
2022-11-16T14:49:35.351Z,73.36
2022-11-16T14:52:45.127Z,72.98
2022-11-16T14:55:49.306Z,72.86
2022-11-16T14:58:53.956Z,72.99
2022-11-16T15:01:58.326Z,72.94
2022-11-16T15:05:01.909Z,72.50
2022-11-16T15:08:16.509Z,73.01
2022-11-16T15:11:51.619Z,72.84
2022-11-16T15:14:58.369Z,72.51
2022-11-16T15:18:04.704Z,72.33
2022-11-16T15:21:23.386Z,72.66
2022-11-16T15:24:33.153Z,72.71
2022-11-16T15:27:41.021Z,73.11
2022-11-16T15:30:49.280Z,73.27
2022-11-16T15:33:53.128Z,73.63
2022-11-16T15:36:56.472Z,73.84
2022-11-16T15:40:03.138Z,73.74
2022-11-16T15:43:07.687Z,74.01
2022-11-16T15:46:15.833Z,73.89
2022-11-16T15:49:39.497Z,73.98
2022-11-16T15:52:49.121Z,74.22
2022-11-16T15:55:53.559Z,74.31
2022-11-16T15:59:02.414Z,74.59
2022-11-16T16:02:07.183Z,74.80
2022-11-16T16:05:23.924Z,75.15
2022-11-16T16:08:34.717Z,76.13
2022-11-16T16:11:38.498Z,75.75
2022-11-16T16:14:43.729Z,75.51
2022-11-16T16:17:48.685Z,75.58
2022-11-16T16:20:53.012Z,75.08
2022-11-16T16:23:57.918Z,74.44
2022-11-16T16:27:03.187Z,74.30
2022-11-16T16:30:07.899Z,74.38
2022-11-16T16:33:23.396Z,75.14
2022-11-16T16:36:30.785Z,76.31
2022-11-16T16:39:37.580Z,76.83
2022-11-16T16:42:44.046Z,76.92
2022-11-16T16:45:52.446Z,77.38
2022-11-16T16:48:57.814Z,76.84
2022-11-16T16:52:03.749Z,76.56
2022-11-16T16:55:09.514Z,76.46
2022-11-16T16:58:16.272Z,77.10
2022-11-16T17:01:21.925Z,76.90
2022-11-16T17:04:27.966Z,77.48
2022-11-16T17:07:33.563Z,78.68
2022-11-16T17:10:40.652Z,79.31
2022-11-16T17:13:45.881Z,79.45
2022-11-16T17:16:51.082Z,80.15
2022-11-16T17:19:55.316Z,80.44
2022-11-16T17:23:00.870Z,80.44
2022-11-16T17:26:09.530Z,80.26
2022-11-16T17:29:18.660Z,79.60
2022-11-16T17:32:27.192Z,79.83
2022-11-16T17:35:33.857Z,79.06
2022-11-16T17:38:40.008Z,78.77
2022-11-16T17:41:51.615Z,78.46
2022-11-16T17:44:57.097Z,78.88
2022-11-16T17:48:02.102Z,79.49
2022-11-16T17:51:07.015Z,80.22
2022-11-16T17:54:15.561Z,80.08
2022-11-16T17:57:20.705Z,80.45
2022-11-16T18:00:25.894Z,80.71
2022-11-16T18:03:30.437Z,80.34
2022-11-16T18:06:36.816Z,80.57
2022-11-16T18:09:43.269Z,80.53
2022-11-16T18:12:49.515Z,80.94
2022-11-16T18:15:54.190Z,80.94
2022-11-16T18:19:01.556Z,80.99
2022-11-16T18:22:06.641Z,80.94
2022-11-16T18:25:12.080Z,80.74
2022-11-16T18:28:20.092Z,80.66
2022-11-16T18:31:27.986Z,80.82
2022-11-16T18:34:33.143Z,81.05
2022-11-16T18:37:38.467Z,81.07
2022-11-16T18:40:43.528Z,81.02
2022-11-16T18:43:54.141Z,81.01
2022-11-16T18:46:58.541Z,81.00
2022-11-16T18:50:03.409Z,80.64
2022-11-16T18:53:08.571Z,80.65
2022-11-16T18:56:13.619Z,80.79
2022-11-16T18:59:18.534Z,80.76
2022-11-16T19:02:24.319Z,80.94
2022-11-16T19:05:29.839Z,80.86
2022-11-16T19:08:35.429Z,80.72
2022-11-16T19:11:41.546Z,80.42
2022-11-16T19:14:47.080Z,80.32
2022-11-16T19:18:19.387Z,79.85
2022-11-16T19:21:20.159Z,79.73
2022-11-16T19:24:25.485Z,79.38
2022-11-16T19:27:32.069Z,79.50
2022-11-16T19:30:37.358Z,79.14
2022-11-16T19:33:43.225Z,78.71
2022-11-16T19:36:48.128Z,78.90
2022-11-16T19:39:52.700Z,78.19
2022-11-16T19:42:56.681Z,77.91
2022-11-16T19:46:10.458Z,77.38
2022-11-16T19:49:20.266Z,76.95
2022-11-16T19:52:24.770Z,76.24
2022-11-16T19:55:28.811Z,76.04
2022-11-16T19:58:34.948Z,75.48
2022-11-16T20:01:39.546Z,75.18
2022-11-16T20:04:44.905Z,74.93
2022-11-16T20:07:50.767Z,74.60
2022-11-16T20:10:54.368Z,74.11
2022-11-16T20:13:59.951Z,74.26
2022-11-16T20:17:03.320Z,74.42
2022-11-16T20:20:07.729Z,74.35
2022-11-16T20:23:15.162Z,74.12
2022-11-16T20:26:20.217Z,74.27
2022-11-16T20:29:25.036Z,74.25
2022-11-16T20:32:32.792Z,74.11
2022-11-16T20:35:36.502Z,74.23
2022-11-16T20:38:40.693Z,74.52
2022-11-16T20:41:45.041Z,74.36
2022-11-16T20:44:50.894Z,74.52
2022-11-16T20:47:55.651Z,74.47
2022-11-16T20:51:01.534Z,74.39
2022-11-16T20:54:06.048Z,74.31
2022-11-16T20:57:11.195Z,73.87
2022-11-16T21:00:16.212Z,73.67
2022-11-16T21:03:20.255Z,73.42
2022-11-16T21:06:25.070Z,73.26
2022-11-16T21:09:49.586Z,73.30
2022-11-16T21:13:11.875Z,72.96
2022-11-16T21:16:17.020Z,72.42
2022-11-16T21:19:22.498Z,72.17
2022-11-16T21:22:32.309Z,72.07
2022-11-16T21:25:38.869Z,72.06
2022-11-16T21:28:47.216Z,71.97
2022-11-16T21:31:51.089Z,71.74
2022-11-16T21:34:56.280Z,71.41
2022-11-16T21:38:00.200Z,71.42
2022-11-16T21:41:07.470Z,71.21
2022-11-16T21:44:11.298Z,70.98
2022-11-16T21:47:18.460Z,71.03
2022-11-16T21:50:33.750Z,70.98
2022-11-16T21:53:39.470Z,70.67
2022-11-16T21:56:44.144Z,70.55
2022-11-16T21:59:49.388Z,70.30
2022-11-16T22:02:53.327Z,70.25
2022-11-16T22:06:18.411Z,70.29
2022-11-16T22:09:22.825Z,70.47
2022-11-16T22:12:29.511Z,70.22
2022-11-16T22:15:34.227Z,69.79
2022-11-16T22:18:39.661Z,69.28
2022-11-16T22:21:45.644Z,68.99
2022-11-16T22:24:50.243Z,69.18
2022-11-16T22:31:19.397Z,69.16
2022-11-16T22:34:24.031Z,69.15
2022-11-16T22:37:28.558Z,69.19
2022-11-16T22:40:32.521Z,68.87
2022-11-16T22:43:40.607Z,68.82
2022-11-16T22:46:51.759Z,67.88
2022-11-16T22:50:02.231Z,67.23
2022-11-16T22:53:08.186Z,66.65
